Sunday, January 20, 2019, 1:54 AM EST
Back to Local

KBDL, Bradley International Airport

Location: Windsor Locks, CT, United States Lat: 41.933
Local Time: 1:54 AM EST ( 6:54 GMT) Lon: -72.683
Time Zone: US/Eastern Elev: 173 ft

Show me the last for .
Show Decoded

2019-01-20 01:39 METAR KBDL 200639Z 01010KT 1/2SM R06/P6000FT -SN BR VV012 M03/M04 A2988 =
2019-01-20 00:51 METAR KBDL 200551Z 01010KT 1/2SM R06/4500VP6000FT SN FZFG VV006 M03/M04 A2993
                 RMK AO2 SLP137 SNINCR 1/3 4/003 P0013 60034 T10331039 11006 21033 56058 =
2019-01-19 23:51 METAR KBDL 200451Z 02012KT 1/2SM R06/2800VP6000FT SN FZFG VV006 M03/M04 A2997
                 RMK AO2 SLP151 SNINCR 1/2 P0009 T10281039 400111039 =
2019-01-19 23:21 METAR KBDL 200421Z 02012KT 1/2SM R06/3500VP6000FT SN FZFG VV008 M03/M03 A3000
                 RMK AO2 P0003 T10281033 =
2019-01-19 22:51 METAR KBDL 200351Z 03010KT 3/4SM R06/5500VP6000FT -SN BR VV013 M03/M03 A3003 RMK
                 AO2 SFC VIS 1 PRESFR SLP171 SNINCR 1/1 P0007 T10281033 =
2019-01-19 22:44 METAR KBDL 200344Z 03010KT 3/4SM R06/P6000FT -SN BR VV011 M03/M03 A3004 RMK AO2
                 SFC VIS 1 1/4 P0007 T10281033 =
2019-01-19 21:51 METAR KBDL 200251Z 03005KT 3/4SM R06/3500V4500FT -SN BR VV008 M03/M03 A3010 RMK
                 AO2 TWR VIS 1 SLP196 P0005 60005 T10281028 55010 =
2019-01-19 21:14 METAR KBDL 200214Z 03007KT 1SM R06/5500VP6000FT -SN BR BKN013 OVC022 M02/M03
                 A3009 RMK AO2 SFC VIS 1 1/2 P0001 T10221033 =
2019-01-19 20:51 METAR KBDL 200151Z 05007KT 1 1/2SM -SN BR OVC022 M02/M04 A3010 RMK AO2 SFC VIS 2
                 SLP193 P0000 T10221039 =
2019-01-19 20:48 METAR KBDL 200148Z 05007KT 1 1/2SM -SN BR OVC022 M02/M04 A3010 RMK AO2 SFC VIS 2
                 1/2 P0000 =
2019-01-19 20:34 METAR KBDL 200134Z 07009KT 4SM -SN OVC024 M02/M05 A3010 RMK AO2 PRESFR P0000
                 T10171050 =
2019-01-19 19:51 METAR KBDL 200051Z 08007KT 9SM -SN SCT023 BKN040 OVC048 M01/M06 A3013 RMK AO2
                 SNB46 SLP206 P0000 T10111061 =
2019-01-19 18:51 METAR KBDL 192351Z 12007KT 10SM BKN040 OVC049 M01/M06 A3016 RMK AO2 SLP214
                 T10061061 10006 21011 55014 =
2019-01-19 17:51 METAR KBDL 192251Z 02005KT 10SM OVC047 M01/M08 A3014 RMK AO2 SLP208 T10111078 =
2019-01-19 16:51 METAR KBDL 192151Z 04008KT 10SM OVC049 M01/M08 A3017 RMK AO2 PRESFR SLP218
                 T10111078 =
2019-01-19 15:51 METAR KBDL 192051Z 35007KT 10SM FEW045 OVC050 M01/M08 A3020 RMK AO2 SLP228
                 T10061083 55008 =
2019-01-19 14:51 METAR KBDL 191951Z 02006KT 10SM FEW045 OVC050 00/M08 A3019 RMK AO2 SLP225
                 T00001078 =
2019-01-19 13:51 METAR KBDL 191851Z 02006KT 10SM OVC048 01/M08 A3018 RMK AO2 SLP223 T00061078 =
2019-01-19 12:51 METAR KBDL 191751Z VRB04KT 10SM BKN049 OVC100 01/M08 A3022 RMK AO2 SLP237
                 T00061083 10011 21028 58019 =
2019-01-19 11:51 METAR KBDL 191651Z 01004KT 10SM BKN050 OVC100 01/M08 A3026 RMK AO2 SLP249
                 T00061078 =
2019-01-19 10:51 METAR KBDL 191551Z 02009KT 10SM BKN050 BKN100 BKN250 00/M08 A3029 RMK AO2 SLP259
                 T00001083 =
2019-01-19 09:51 METAR KBDL 191451Z 01010KT 10SM FEW045 SCT100 BKN250 00/M08 A3028 RMK AO2 SLP256
                 T00001083 53016 =
2019-01-19 08:51 METAR KBDL 191351Z 01008KT 10SM FEW045 BKN140 BKN250 M01/M07 A3027 RMK AO2
                 SLP251 T10061067 =
2019-01-19 07:51 METAR KBDL 191251Z 35005KT 10SM FEW041 SCT110 BKN250 M02/M08 A3024 RMK AO2
                 SLP242 T10221078 =
2019-01-19 06:51 METAR KBDL 191151Z 33007KT 10SM SCT039 BKN250 M02/M07 A3024 RMK AO2 SLP240
                 T10171072 10006 21039 53015 =
2019-01-19 05:51 METAR KBDL 191051Z 31003KT 10SM SCT038 SCT250 M03/M07 A3021 RMK AO2 SLP232
                 T10281067 =
2019-01-19 04:51 METAR KBDL 190951Z 00000KT 10SM FEW041 FEW250 M02/M07 A3020 RMK AO2 SLP228
                 T10171067 =
2019-01-19 03:51 METAR KBDL 190851Z 29006KT 10SM SCT043 SCT250 M03/M07 A3019 RMK AO2 SLP225
                 T10281067 51020 =
2019-01-19 02:51 METAR KBDL 190751Z 30006KT 10SM SCT041 M02/M07 A3018 RMK AO2 SLP220 T10221067 =

Support USWX by starting your Amazon purchase here.